createdAt,value
2023-04-15T00:00:59.662Z,2.60
2023-04-15T00:03:28.657Z,2.60
2023-04-15T00:05:55.605Z,2.83
2023-04-15T00:08:22.297Z,3.27
2023-04-15T00:10:49.417Z,2.60
2023-04-15T00:13:16.558Z,3.00
2023-04-15T00:15:43.414Z,2.63
2023-04-15T00:18:10.366Z,2.83
2023-04-15T00:20:37.539Z,2.80
2023-04-15T00:23:04.460Z,3.07
2023-04-15T00:25:31.465Z,3.00
2023-04-15T00:27:58.276Z,2.80
2023-04-15T00:30:25.764Z,2.50
2023-04-15T00:32:52.727Z,2.70
2023-04-15T00:35:19.527Z,2.70
2023-04-15T00:37:46.462Z,3.13
2023-04-15T00:40:13.898Z,3.00
2023-04-15T00:42:41.081Z,3.37
2023-04-15T00:45:09.071Z,2.80
2023-04-15T00:47:37.331Z,2.83
2023-04-15T00:50:04.988Z,2.80
2023-04-15T00:52:32.037Z,2.80
2023-04-15T00:54:59.068Z,2.83
2023-04-15T00:57:27.057Z,2.77
2023-04-15T00:59:54.007Z,2.53
2023-04-15T01:02:21.142Z,2.90
2023-04-15T01:04:48.556Z,3.00
2023-04-15T01:07:15.404Z,2.70
2023-04-15T01:09:42.627Z,3.10
2023-04-15T01:12:20.820Z,3.00
2023-04-15T01:14:47.954Z,3.07
2023-04-15T01:17:17.810Z,2.67
2023-04-15T01:19:44.685Z,2.60
2023-04-15T01:22:11.420Z,2.60
2023-04-15T01:24:38.799Z,2.70
2023-04-15T01:27:05.713Z,2.80
2023-04-15T01:29:36.887Z,3.03
2023-04-15T01:32:04.201Z,2.80
2023-04-15T01:34:31.182Z,2.80
2023-04-15T01:36:58.486Z,2.80
2023-04-15T01:39:25.131Z,2.60
2023-04-15T01:41:52.270Z,2.73
2023-04-15T01:44:18.984Z,2.43
2023-04-15T01:46:45.717Z,2.77
2023-04-15T01:49:12.453Z,3.30
2023-04-15T01:51:39.191Z,2.60
2023-04-15T01:54:05.902Z,2.83
2023-04-15T01:56:33.420Z,2.70
2023-04-15T01:59:00.509Z,2.83
2023-04-15T02:01:27.415Z,2.73
2023-04-15T02:03:54.108Z,2.50
2023-04-15T02:06:21.021Z,2.70
2023-04-15T02:08:47.665Z,2.60
2023-04-15T02:11:14.662Z,2.50
2023-04-15T02:13:41.716Z,2.67
2023-04-15T02:16:18.801Z,2.50
2023-04-15T02:18:47.080Z,2.60
2023-04-15T02:21:14.163Z,2.70
2023-04-15T02:23:41.099Z,2.70
2023-04-15T02:26:08.111Z,2.40
2023-04-15T02:28:34.909Z,2.43
2023-04-15T02:31:06.351Z,2.67
2023-04-15T02:33:33.233Z,2.47
2023-04-15T02:36:00.136Z,2.70
2023-04-15T02:38:26.836Z,2.50
2023-04-15T02:40:53.522Z,2.43
2023-04-15T02:43:20.223Z,2.63
2023-04-15T02:45:47.356Z,2.30
2023-04-15T02:48:14.084Z,2.20
2023-04-15T02:50:41.051Z,2.03
2023-04-15T02:53:07.706Z,2.30
2023-04-15T02:55:34.443Z,2.30
2023-04-15T02:58:01.215Z,2.43
2023-04-15T03:00:28.625Z,2.20
2023-04-15T03:03:15.257Z,2.37
2023-04-15T03:05:42.180Z,2.30
2023-04-15T03:08:08.829Z,2.07
2023-04-15T03:10:35.469Z,2.27
2023-04-15T03:13:02.157Z,2.20
2023-04-15T03:15:28.821Z,1.90
2023-04-15T03:17:55.574Z,2.30
2023-04-15T03:20:22.348Z,2.40
2023-04-15T03:22:49.009Z,2.47
2023-04-15T03:25:15.874Z,2.23
2023-04-15T03:27:42.542Z,2.40
2023-04-15T03:30:09.667Z,2.50
2023-04-15T03:32:36.404Z,2.33
2023-04-15T03:35:03.299Z,2.50
2023-04-15T03:37:29.918Z,2.20
2023-04-15T03:39:56.628Z,2.90
2023-04-15T03:42:23.326Z,2.80
2023-04-15T03:44:50.043Z,2.47
2023-04-15T03:47:16.721Z,2.50
2023-04-15T03:49:43.410Z,2.30
2023-04-15T03:52:10.071Z,2.50
2023-04-15T03:54:36.799Z,2.50
2023-04-15T03:57:03.535Z,2.43
2023-04-15T03:59:30.512Z,2.60
2023-04-15T04:01:57.322Z,2.77
2023-04-15T04:04:24.178Z,2.57
2023-04-15T04:06:51.097Z,2.80
2023-04-15T04:09:17.743Z,3.00
2023-04-15T04:11:45.585Z,2.80
2023-04-15T04:14:12.237Z,3.03
2023-04-15T04:16:38.913Z,2.67
2023-04-15T04:19:05.613Z,2.63
2023-04-15T04:21:34.085Z,2.90
2023-04-15T04:24:00.840Z,2.70
2023-04-15T04:26:27.473Z,2.83
2023-04-15T04:28:54.195Z,3.10
2023-04-15T04:31:21.242Z,3.27
2023-04-15T04:33:48.704Z,3.00
2023-04-15T04:36:15.659Z,2.80
2023-04-15T04:38:42.582Z,3.00
2023-04-15T04:41:09.958Z,2.60
2023-04-15T04:43:39.405Z,2.57
2023-04-15T04:46:08.471Z,2.50
2023-04-15T04:48:37.554Z,2.97
2023-04-15T04:51:05.636Z,2.67
2023-04-15T04:53:34.840Z,2.73
2023-04-15T04:56:01.720Z,2.30
2023-04-15T04:58:28.391Z,2.77
2023-04-15T05:00:55.122Z,2.70
2023-04-15T05:03:22.246Z,2.40
2023-04-15T05:05:49.338Z,2.53
2023-04-15T05:08:16.341Z,2.50
2023-04-15T05:10:43.064Z,2.60
2023-04-15T05:13:09.721Z,2.50
2023-04-15T05:15:37.184Z,2.50
2023-04-15T05:18:03.984Z,2.40
2023-04-15T05:20:30.954Z,2.27
2023-04-15T05:22:57.598Z,2.37
2023-04-15T05:25:24.244Z,2.57
2023-04-15T05:27:50.919Z,2.60
2023-04-15T05:30:17.610Z,2.50
2023-04-15T05:32:44.328Z,2.50
2023-04-15T05:35:10.949Z,2.47
2023-04-15T05:37:37.614Z,2.67
2023-04-15T05:40:04.534Z,2.60
2023-04-15T05:42:31.387Z,2.60
2023-04-15T05:44:58.319Z,2.57
2023-04-15T05:47:25.129Z,2.60
2023-04-15T05:49:51.930Z,2.20
2023-04-15T05:52:18.544Z,2.60
2023-04-15T05:54:45.216Z,2.30
2023-04-15T05:57:12.072Z,2.50
2023-04-15T05:59:38.903Z,2.27
2023-04-15T06:02:06.222Z,2.47
2023-04-15T06:04:33.059Z,2.50
2023-04-15T06:06:59.752Z,2.30
2023-04-15T06:09:26.534Z,2.40
2023-04-15T06:11:53.570Z,2.87
2023-04-15T06:14:20.274Z,2.53
2023-04-15T06:16:47.029Z,2.87
2023-04-15T06:19:14.262Z,2.50
2023-04-15T06:21:41.049Z,2.97
2023-04-15T06:24:07.730Z,2.53
2023-04-15T06:26:34.416Z,2.33
2023-04-15T06:29:01.561Z,2.67
2023-04-15T06:31:28.563Z,2.47
2023-04-15T06:33:55.431Z,2.60
2023-04-15T06:36:22.080Z,2.40
2023-04-15T06:38:48.742Z,2.43
2023-04-15T06:41:15.771Z,2.60
2023-04-15T06:43:42.416Z,2.70
2023-04-15T06:46:09.241Z,2.57
2023-04-15T06:48:35.929Z,2.57
2023-04-15T06:51:03.796Z,2.80
2023-04-15T06:53:30.452Z,2.90
2023-04-15T06:55:57.069Z,2.50
2023-04-15T06:58:23.714Z,2.30
2023-04-15T07:00:50.403Z,2.53
2023-04-15T07:03:17.124Z,2.97
2023-04-15T07:05:43.786Z,2.60
2023-04-15T07:08:10.492Z,2.40
2023-04-15T07:10:37.147Z,2.37
2023-04-15T07:13:04.404Z,2.33
2023-04-15T07:15:31.130Z,2.30
2023-04-15T07:17:58.116Z,2.10
2023-04-15T07:20:24.927Z,2.40
2023-04-15T07:22:51.716Z,2.77
2023-04-15T07:25:19.024Z,2.60
2023-04-15T07:27:45.908Z,2.40
2023-04-15T07:30:12.835Z,2.40
2023-04-15T07:32:39.532Z,2.20
2023-04-15T07:35:06.433Z,2.20
2023-04-15T07:37:33.594Z,1.97
2023-04-15T07:40:00.315Z,2.10
2023-04-15T07:42:27.553Z,2.10
2023-04-15T07:44:54.215Z,2.67
2023-04-15T07:47:21.195Z,2.40
2023-04-15T07:49:47.946Z,2.47
2023-04-15T07:52:14.590Z,2.23
2023-04-15T07:54:41.228Z,2.70
2023-04-15T07:57:07.956Z,2.97
2023-04-15T07:59:34.713Z,2.53
2023-04-15T08:02:01.462Z,3.10
2023-04-15T08:04:28.588Z,3.27
2023-04-15T08:06:55.340Z,2.70
2023-04-15T08:09:22.079Z,2.83
2023-04-15T08:11:49.539Z,2.77
2023-04-15T08:14:16.754Z,2.50
2023-04-15T08:16:43.468Z,2.70
2023-04-15T08:19:10.159Z,2.50
2023-04-15T08:21:36.826Z,2.67
2023-04-15T08:24:03.719Z,3.07
2023-04-15T08:26:30.356Z,2.90
2023-04-15T08:28:57.580Z,2.77
2023-04-15T08:31:26.342Z,2.80
2023-04-15T08:33:54.505Z,2.70
2023-04-15T08:36:21.183Z,2.90
2023-04-15T08:38:47.928Z,2.40
2023-04-15T08:41:41.632Z,2.73
2023-04-15T08:44:09.331Z,2.50
2023-04-15T08:46:36.440Z,3.20
2023-04-15T08:49:06.058Z,2.80
2023-04-15T08:51:33.798Z,2.27
2023-04-15T08:54:01.527Z,2.77
2023-04-15T08:56:28.516Z,2.90
2023-04-15T08:58:55.526Z,2.87
2023-04-15T09:01:23.208Z,2.97
2023-04-15T09:03:54.408Z,2.80
2023-04-15T09:06:22.108Z,2.50
2023-04-15T09:08:49.586Z,2.60
2023-04-15T09:11:20.011Z,2.37
2023-04-15T09:13:47.017Z,2.40
2023-04-15T09:16:13.772Z,2.20
2023-04-15T09:18:40.815Z,2.70
2023-04-15T09:21:12.640Z,2.50
2023-04-15T09:23:41.887Z,2.20
2023-04-15T09:26:08.618Z,2.33
2023-04-15T09:28:42.413Z,2.03
2023-04-15T09:31:10.381Z,2.37
2023-04-15T09:33:55.314Z,2.00
2023-04-15T09:36:22.004Z,2.37
2023-04-15T09:38:56.421Z,1.97
2023-04-15T09:41:23.387Z,2.10
2023-04-15T09:43:50.057Z,1.90
2023-04-15T09:46:16.769Z,1.70
2023-04-15T09:48:48.914Z,1.87
2023-04-15T09:51:16.119Z,2.13
2023-04-15T09:53:42.745Z,1.70
2023-04-15T09:56:10.447Z,1.90
2023-04-15T09:58:38.754Z,2.10
2023-04-15T10:01:06.535Z,1.70
2023-04-15T10:03:38.362Z,1.70
2023-04-15T10:06:05.714Z,1.60
2023-04-15T10:08:34.924Z,1.57
2023-04-15T10:11:05.015Z,1.70
2023-04-15T10:13:37.523Z,1.87
2023-04-15T10:16:07.648Z,1.87
2023-04-15T10:18:36.172Z,1.80
2023-04-15T10:21:02.801Z,2.00
2023-04-15T10:23:29.534Z,1.77
2023-04-15T10:25:56.346Z,2.00
2023-04-15T10:28:23.001Z,1.80
2023-04-15T10:30:50.008Z,2.30
2023-04-15T10:33:26.592Z,1.90
2023-04-15T10:35:55.071Z,2.23
2023-04-15T10:38:37.340Z,1.93
2023-04-15T10:41:20.420Z,2.03
2023-04-15T10:43:52.801Z,2.00
2023-04-15T10:46:21.729Z,2.00
2023-04-15T10:48:53.253Z,1.70
2023-04-15T10:51:30.736Z,2.00
2023-04-15T10:54:01.574Z,1.57
2023-04-15T10:56:29.722Z,2.20
2023-04-15T10:58:58.614Z,2.10
2023-04-15T11:01:56.393Z,2.30
2023-04-15T11:05:00.592Z,2.03
2023-04-15T11:07:46.772Z,2.00
2023-04-15T11:10:26.049Z,2.43
2023-04-15T11:13:00.542Z,2.40
2023-04-15T11:15:38.969Z,2.37
2023-04-15T11:18:11.218Z,2.20
2023-04-15T11:20:39.453Z,2.77
2023-04-15T11:23:14.042Z,3.00
2023-04-15T11:25:43.210Z,3.00
2023-04-15T11:28:14.202Z,3.07
2023-04-15T11:30:42.350Z,3.43
2023-04-15T11:33:10.462Z,2.67
2023-04-15T11:35:37.135Z,2.70
2023-04-15T11:38:13.849Z,2.40
2023-04-15T11:40:43.851Z,2.60
2023-04-15T11:43:20.222Z,2.70
2023-04-15T11:45:58.457Z,2.60
2023-04-15T11:48:27.585Z,2.67
2023-04-15T11:50:56.881Z,2.73
2023-04-15T11:53:24.168Z,2.83
2023-04-15T11:55:52.727Z,2.43
2023-04-15T11:58:23.501Z,2.50
2023-04-15T12:00:54.030Z,2.67
2023-04-15T12:03:31.983Z,2.60
2023-04-15T12:06:18.302Z,2.63
2023-04-15T12:09:01.085Z,2.50
2023-04-15T12:11:28.400Z,2.70
2023-04-15T12:14:08.635Z,2.30
2023-04-15T12:16:49.301Z,2.10
2023-04-15T12:19:19.302Z,2.70
2023-04-15T12:21:48.005Z,2.10
2023-04-15T12:24:15.389Z,2.10
2023-04-15T12:26:48.256Z,2.30
2023-04-15T12:29:18.937Z,2.30
2023-04-15T12:31:53.604Z,2.30
2023-04-15T12:34:34.851Z,2.17
2023-04-15T12:37:03.532Z,2.03
2023-04-15T12:39:33.104Z,1.97
2023-04-15T12:42:00.507Z,1.80
2023-04-15T12:44:28.033Z,1.90
2023-04-15T12:46:55.174Z,1.80
2023-04-15T12:49:22.836Z,1.60
2023-04-15T12:51:50.452Z,1.40
2023-04-15T12:54:17.935Z,1.53
2023-04-15T12:56:48.643Z,1.60
2023-04-15T12:59:16.307Z,1.30
2023-04-15T13:01:43.000Z,1.30
2023-04-15T13:04:09.868Z,1.27
2023-04-15T13:06:38.230Z,1.60
2023-04-15T13:09:06.073Z,1.37
2023-04-15T13:11:36.655Z,1.67
2023-04-15T13:14:07.692Z,1.50
2023-04-15T13:16:34.926Z,1.30
2023-04-15T13:19:02.460Z,1.50
2023-04-15T13:21:29.332Z,1.40
2023-04-15T13:23:56.375Z,1.50
2023-04-15T13:26:23.068Z,1.20
2023-04-15T13:28:49.708Z,1.47
2023-04-15T13:31:16.537Z,1.20
2023-04-15T13:33:43.283Z,1.33
2023-04-15T13:36:10.446Z,1.20
2023-04-15T13:38:37.103Z,1.20
2023-04-15T13:41:03.800Z,1.10
2023-04-15T13:43:30.618Z,1.00
2023-04-15T13:45:57.321Z,1.00
2023-04-15T13:48:24.017Z,0.77
2023-04-15T13:50:50.906Z,0.87
2023-04-15T13:53:17.536Z,0.90
2023-04-15T13:55:44.648Z,1.17
2023-04-15T13:58:11.722Z,1.10
2023-04-15T14:00:38.376Z,1.10
2023-04-15T14:03:05.281Z,1.00
2023-04-15T14:05:32.786Z,1.00
2023-04-15T14:07:59.970Z,1.00
2023-04-15T14:10:26.602Z,0.90
2023-04-15T14:12:53.249Z,0.97
2023-04-15T14:15:19.874Z,0.90
2023-04-15T14:17:49.133Z,0.70
2023-04-15T14:20:17.137Z,0.97
2023-04-15T14:22:44.171Z,1.00
2023-04-15T14:25:15.134Z,1.10
2023-04-15T14:27:50.054Z,0.87
2023-04-15T14:30:17.210Z,0.90
2023-04-15T14:32:44.332Z,0.97
2023-04-15T14:35:11.462Z,0.90
2023-04-15T14:37:38.382Z,0.83
2023-04-15T14:40:06.014Z,0.90
2023-04-15T14:42:32.708Z,0.90
2023-04-15T14:44:59.370Z,1.00
2023-04-15T14:47:26.170Z,1.30
2023-04-15T14:49:52.902Z,1.00
2023-04-15T14:52:19.725Z,1.00
2023-04-15T14:54:46.439Z,0.80
2023-04-15T14:57:13.147Z,0.97
2023-04-15T14:59:39.806Z,0.83
2023-04-15T15:02:06.639Z,0.80
2023-04-15T15:04:34.924Z,0.73
2023-04-15T15:07:01.776Z,0.80
2023-04-15T15:09:29.022Z,0.90
2023-04-15T15:11:57.264Z,1.00
2023-04-15T15:14:24.505Z,0.90
2023-04-15T15:16:51.682Z,0.80
2023-04-15T15:19:19.369Z,0.83
2023-04-15T15:21:46.164Z,0.90
2023-04-15T15:24:13.841Z,0.80
2023-04-15T15:26:40.545Z,0.67
2023-04-15T15:29:07.277Z,0.73
2023-04-15T15:31:37.112Z,0.90
2023-04-15T15:34:04.058Z,0.80
2023-04-15T15:36:33.797Z,0.80
2023-04-15T15:39:00.977Z,0.73
2023-04-15T15:41:27.667Z,0.80
2023-04-15T15:43:54.932Z,0.70
2023-04-15T15:46:24.097Z,0.60
2023-04-15T15:48:50.881Z,0.70
2023-04-15T15:51:17.577Z,0.87
2023-04-15T15:53:44.833Z,0.90
2023-04-15T15:56:11.857Z,0.83
2023-04-15T15:58:38.503Z,0.93
2023-04-15T16:01:05.472Z,0.80
2023-04-15T16:03:32.186Z,0.80
2023-04-15T16:05:58.966Z,1.00
2023-04-15T16:08:26.264Z,0.90
2023-04-15T16:10:52.959Z,1.00
2023-04-15T16:13:19.606Z,0.93
2023-04-15T16:15:46.260Z,0.90
2023-04-15T16:18:12.941Z,1.10
2023-04-15T16:20:39.632Z,1.20
2023-04-15T16:23:13.406Z,1.00
2023-04-15T16:25:41.783Z,1.00
2023-04-15T16:28:22.692Z,1.00
2023-04-15T16:30:52.123Z,1.20
2023-04-15T16:33:19.293Z,1.00
2023-04-15T16:35:45.931Z,1.10
2023-04-15T16:38:13.020Z,0.90
2023-04-15T16:40:40.902Z,1.20
2023-04-15T16:43:12.306Z,1.13
2023-04-15T16:45:38.972Z,1.20
2023-04-15T16:48:06.132Z,1.10
2023-04-15T16:50:34.038Z,1.20
2023-04-15T16:53:01.572Z,1.10
2023-04-15T16:55:28.280Z,1.20
2023-04-15T16:58:02.062Z,1.10
2023-04-15T17:00:31.184Z,1.23
2023-04-15T17:02:59.144Z,1.23
2023-04-15T17:05:30.695Z,1.20
2023-04-15T17:07:58.031Z,1.20
2023-04-15T17:10:25.041Z,1.20
2023-04-15T17:12:52.521Z,1.10
2023-04-15T17:15:20.078Z,1.00
2023-04-15T17:17:47.156Z,1.20
2023-04-15T17:20:14.269Z,1.07
2023-04-15T17:22:41.737Z,1.10
2023-04-15T17:25:13.510Z,1.00
2023-04-15T17:27:41.185Z,1.20
2023-04-15T17:30:08.733Z,1.20
2023-04-15T17:32:35.880Z,1.13
2023-04-15T17:35:10.089Z,1.10
2023-04-15T17:37:37.913Z,1.10
2023-04-15T17:40:06.747Z,1.00
2023-04-15T17:42:35.304Z,1.00
2023-04-15T17:45:01.924Z,1.10
2023-04-15T17:47:29.060Z,1.00
2023-04-15T17:49:56.435Z,1.10
2023-04-15T17:52:23.621Z,0.97
2023-04-15T17:54:50.688Z,1.10
2023-04-15T17:57:17.457Z,0.90
2023-04-15T17:59:47.317Z,1.00
2023-04-15T18:02:14.764Z,0.90
2023-04-15T18:04:42.181Z,0.90
2023-04-15T18:07:09.503Z,0.93
2023-04-15T18:09:36.788Z,0.90
2023-04-15T18:12:04.616Z,0.93
2023-04-15T18:14:34.773Z,0.90
2023-04-15T18:17:02.999Z,0.93
2023-04-15T18:19:30.605Z,0.90
2023-04-15T18:21:57.932Z,0.90
2023-04-15T18:24:24.568Z,0.90
2023-04-15T18:26:52.536Z,1.00
2023-04-15T18:29:19.444Z,0.80
2023-04-15T18:31:46.584Z,1.00
2023-04-15T18:34:13.723Z,0.97
2023-04-15T18:36:40.478Z,0.90
2023-04-15T18:39:07.357Z,1.10
2023-04-15T18:41:34.773Z,1.10
2023-04-15T18:44:01.436Z,1.10
2023-04-15T18:46:28.199Z,1.10
2023-04-15T18:48:54.879Z,1.20
2023-04-15T18:51:22.315Z,0.90
2023-04-15T18:53:49.565Z,0.93
2023-04-15T18:56:16.259Z,1.03
2023-04-15T18:59:08.543Z,1.03
2023-04-15T19:01:31.397Z,1.00
2023-04-15T19:03:58.220Z,1.10
2023-04-15T19:06:27.188Z,1.20
2023-04-15T19:08:54.187Z,1.13
2023-04-15T19:11:20.893Z,1.00
2023-04-15T19:13:47.650Z,1.10
2023-04-15T19:16:14.310Z,1.00
2023-04-15T19:22:22.743Z,1.00
2023-04-15T19:24:50.869Z,1.10
2023-04-15T19:27:17.558Z,1.10
2023-04-15T19:29:44.718Z,1.10
2023-04-15T19:32:13.880Z,1.27
2023-04-15T19:34:41.423Z,1.13
2023-04-15T19:37:08.053Z,1.40
2023-04-15T19:39:34.828Z,1.43
2023-04-15T19:42:02.843Z,1.30
2023-04-15T19:44:29.566Z,1.40
2023-04-15T19:46:56.579Z,1.63
2023-04-15T19:49:23.261Z,1.63
2023-04-15T19:51:52.680Z,1.60
2023-04-15T19:54:27.285Z,1.50
2023-04-15T19:56:54.401Z,1.60
2023-04-15T19:59:21.065Z,1.60
2023-04-15T20:01:47.993Z,1.50
2023-04-15T20:04:14.947Z,1.37
2023-04-15T20:06:41.771Z,1.80
2023-04-15T20:09:10.989Z,1.70
2023-04-15T20:12:46.958Z,1.80
2023-04-15T20:14:25.128Z,1.87
2023-04-15T20:16:51.768Z,2.00
2023-04-15T20:19:21.302Z,1.80
2023-04-15T20:21:49.429Z,1.80
2023-04-15T20:24:19.803Z,2.00
2023-04-15T20:26:48.272Z,1.80
2023-04-15T20:29:15.977Z,1.97
2023-04-15T20:31:43.054Z,1.80
2023-04-15T20:34:11.985Z,1.90
2023-04-15T20:36:39.443Z,2.07
2023-04-15T20:39:06.241Z,1.90
2023-04-15T20:41:33.109Z,2.07
2023-04-15T20:43:59.925Z,1.70
2023-04-15T20:46:27.756Z,1.93
2023-04-15T20:48:55.579Z,2.03
2023-04-15T20:51:22.487Z,2.20
2023-04-15T20:53:49.741Z,2.10
2023-04-15T20:56:16.978Z,2.00
2023-04-15T20:58:44.082Z,2.07
2023-04-15T21:01:10.890Z,2.30
2023-04-15T21:03:38.256Z,2.27
2023-04-15T21:06:05.889Z,2.00
2023-04-15T21:08:33.258Z,1.97
2023-04-15T21:11:00.604Z,2.10
2023-04-15T21:13:28.295Z,2.10
2023-04-15T21:15:55.573Z,2.40
2023-04-15T21:18:23.067Z,2.00
2023-04-15T21:21:03.117Z,1.93
2023-04-15T21:23:30.571Z,2.30
2023-04-15T21:25:58.538Z,2.20
2023-04-15T21:28:27.848Z,2.60
2023-04-15T21:30:54.537Z,2.33
2023-04-15T21:33:21.209Z,2.17
2023-04-15T21:35:48.422Z,2.20
2023-04-15T21:38:15.210Z,2.20
2023-04-15T21:40:41.909Z,2.20
2023-04-15T21:43:08.851Z,2.50
2023-04-15T21:45:36.568Z,2.23
2023-04-15T21:48:07.352Z,2.23
2023-04-15T21:50:35.708Z,2.40
2023-04-15T21:53:02.872Z,2.50
2023-04-15T21:55:29.512Z,2.83
2023-04-15T21:57:56.606Z,2.70
2023-04-15T22:00:24.323Z,2.43
2023-04-15T22:02:51.782Z,2.60
2023-04-15T22:05:19.308Z,2.33
2023-04-15T22:07:46.568Z,2.60
2023-04-15T22:10:13.729Z,2.87
2023-04-15T22:12:42.046Z,2.90
2023-04-15T22:15:09.705Z,2.70
2023-04-15T22:17:36.941Z,2.67
2023-04-15T22:20:04.363Z,2.50
2023-04-15T22:22:44.150Z,2.40
2023-04-15T22:25:12.330Z,2.70
2023-04-15T22:27:39.455Z,3.10
2023-04-15T22:30:07.007Z,3.20
2023-04-15T22:32:34.198Z,2.90
2023-04-15T22:35:02.016Z,3.13
2023-04-15T22:37:33.186Z,3.10
2023-04-15T22:40:01.742Z,2.90
2023-04-15T22:42:28.848Z,3.20
2023-04-15T22:44:55.475Z,3.53
2023-04-15T22:47:22.564Z,2.63
2023-04-15T22:49:51.119Z,3.30
2023-04-15T22:52:29.489Z,3.40
2023-04-15T22:54:57.485Z,3.37
2023-04-15T22:57:24.685Z,3.47
2023-04-15T22:59:51.913Z,3.40
2023-04-15T23:02:19.283Z,3.50
2023-04-15T23:04:46.810Z,3.37
2023-04-15T23:07:13.991Z,3.20
2023-04-15T23:09:41.188Z,3.50
2023-04-15T23:12:08.359Z,3.20
2023-04-15T23:14:35.600Z,3.10
2023-04-15T23:17:02.803Z,3.00
2023-04-15T23:19:29.942Z,3.50
2023-04-15T23:21:57.111Z,3.30
2023-04-15T23:24:24.359Z,3.03
2023-04-15T23:26:52.985Z,3.50
2023-04-15T23:29:20.286Z,3.30
2023-04-15T23:31:47.516Z,3.20
2023-04-15T23:34:15.445Z,3.23
2023-04-15T23:44:29.388Z,3.20
2023-04-15T23:47:30.202Z,3.67
2023-04-15T23:49:56.921Z,3.50
2023-04-15T23:52:23.892Z,3.60
2023-04-15T23:54:50.695Z,3.70
2023-04-15T23:57:18.718Z,3.90
2023-04-15T23:59:46.268Z,3.90
